createdAt,value
2022-10-09T00:03:59.798Z,100969.97
2022-10-09T00:08:01.647Z,100958.38
2022-10-09T00:12:03.736Z,100968.38
2022-10-09T00:16:07.867Z,100976.69
2022-10-09T00:20:10.449Z,100971.69
2022-10-09T00:24:12.216Z,100979.09
2022-10-09T00:28:14.111Z,100977.78
2022-10-09T00:32:16.496Z,100970.94
2022-10-09T00:36:22.195Z,100964.75
2022-10-09T00:40:24.987Z,100950.63
2022-10-09T00:44:51.556Z,100960.22
2022-10-09T00:49:01.426Z,100949.03
2022-10-09T00:53:03.635Z,100938.50
2022-10-09T00:57:05.634Z,100920.34
2022-10-09T01:01:07.520Z,100934.03
2022-10-09T01:05:10.863Z,100937.34
2022-10-09T01:09:22.821Z,100956.50
2022-10-09T01:13:36.099Z,100966.44
2022-10-09T01:17:44.780Z,100977.53
2022-10-09T01:21:55.835Z,100982.31
2022-10-09T01:26:26.840Z,100987.00
2022-10-09T01:30:29.538Z,100987.00
2022-10-09T01:34:33.047Z,100983.22
2022-10-09T01:38:35.126Z,100987.78
2022-10-09T01:42:37.040Z,100994.81
2022-10-09T01:46:39.112Z,100988.34
2022-10-09T01:50:45.646Z,100987.06
2022-10-09T01:55:18.949Z,100995.75
2022-10-09T01:59:21.285Z,101008.00
2022-10-09T02:03:25.829Z,101010.94
2022-10-09T02:07:29.656Z,101015.28
2022-10-09T02:11:33.342Z,101021.91
2022-10-09T02:15:47.580Z,101026.16
2022-10-09T02:19:59.473Z,101017.84
2022-10-09T02:24:02.202Z,101029.44
2022-10-09T02:28:04.699Z,101032.38
2022-10-09T02:32:06.725Z,101040.28
2022-10-09T02:36:08.763Z,101053.94
2022-10-09T02:40:11.120Z,101061.25
2022-10-09T02:44:12.855Z,101064.94
2022-10-09T02:48:14.741Z,101077.19
2022-10-09T02:52:16.401Z,101085.50
2022-10-09T02:56:18.224Z,101088.00
2022-10-09T03:00:20.150Z,101091.88
2022-10-09T03:04:22.040Z,101093.00
2022-10-09T03:08:23.880Z,101105.13
2022-10-09T03:12:25.889Z,101104.75
2022-10-09T03:16:28.442Z,101108.53
2022-10-09T03:20:55.721Z,101123.81
2022-10-09T03:24:57.489Z,101126.28
2022-10-09T03:28:59.351Z,101124.69
2022-10-09T03:33:01.240Z,101131.31
2022-10-09T03:37:02.928Z,101137.75
2022-10-09T03:41:05.731Z,101140.56
2022-10-09T03:45:08.014Z,101142.13
2022-10-09T03:49:09.954Z,101138.47
2022-10-09T03:53:13.085Z,101140.97
2022-10-09T03:57:15.446Z,101136.97
2022-10-09T04:01:17.126Z,101142.78
2022-10-09T04:05:19.174Z,101159.31
2022-10-09T04:09:20.803Z,101163.69
2022-10-09T04:13:22.765Z,101163.22
2022-10-09T04:17:24.423Z,101160.53
2022-10-09T04:21:26.495Z,101165.53
2022-10-09T04:25:29.373Z,101160.22
2022-10-09T04:29:31.601Z,101161.59
2022-10-09T04:33:33.343Z,101165.72
2022-10-09T04:37:36.721Z,101175.78
2022-10-09T04:41:38.911Z,101185.75
2022-10-09T04:45:41.175Z,101178.53
2022-10-09T04:49:42.832Z,101180.56
2022-10-09T04:53:45.500Z,101189.09
2022-10-09T04:57:47.201Z,101204.69
2022-10-09T05:01:49.088Z,101196.38
2022-10-09T05:05:50.892Z,101214.66
2022-10-09T05:09:52.748Z,101216.22
2022-10-09T05:13:56.100Z,101211.34
2022-10-09T05:17:58.064Z,101219.41
2022-10-09T05:22:01.007Z,101234.91
2022-10-09T05:26:06.398Z,101239.38
2022-10-09T05:30:09.287Z,101251.13
2022-10-09T05:34:11.488Z,101256.63
2022-10-09T05:38:13.124Z,101262.06
2022-10-09T05:42:15.165Z,101259.50
2022-10-09T05:46:23.721Z,101268.28
2022-10-09T05:50:25.447Z,101273.50
2022-10-09T05:54:27.581Z,101267.19
2022-10-09T05:58:29.512Z,101279.66
2022-10-09T06:02:31.204Z,101277.94
2022-10-09T06:06:37.094Z,101278.56
2022-10-09T06:10:38.740Z,101276.88
2022-10-09T06:14:40.575Z,101275.31
2022-10-09T06:18:48.701Z,101291.38
2022-10-09T06:22:51.437Z,101278.78
2022-10-09T06:26:53.308Z,101296.16
2022-10-09T06:31:04.154Z,101295.63
2022-10-09T06:35:06.862Z,101307.34
2022-10-09T06:39:10.746Z,101309.00
2022-10-09T06:43:12.462Z,101313.16
2022-10-09T06:47:14.287Z,101319.31
2022-10-09T06:51:19.267Z,101314.78
2022-10-09T06:55:24.049Z,101327.84
2022-10-09T06:59:28.121Z,101329.22
2022-10-09T07:03:30.068Z,101336.59
2022-10-09T07:07:32.009Z,101338.13
2022-10-09T07:11:36.500Z,101342.41
2022-10-09T07:15:45.043Z,101348.38
2022-10-09T07:19:48.639Z,101350.34
2022-10-09T07:23:50.674Z,101363.00
2022-10-09T07:27:52.477Z,101384.94
2022-10-09T07:31:54.338Z,101376.06
2022-10-09T07:35:57.995Z,101390.59
2022-10-09T07:39:59.645Z,101389.19
2022-10-09T07:44:01.715Z,101393.16
2022-10-09T07:48:04.063Z,101407.56
2022-10-09T07:52:05.862Z,101403.75
2022-10-09T07:56:13.156Z,101428.78
2022-10-09T08:00:15.068Z,101432.47
2022-10-09T08:04:16.672Z,101447.16
2022-10-09T08:08:18.822Z,101459.06
2022-10-09T08:12:20.502Z,101472.16
2022-10-09T08:16:23.525Z,101485.25
2022-10-09T08:20:25.213Z,101493.41
2022-10-09T08:24:27.237Z,101488.72
2022-10-09T08:28:29.004Z,101492.66
2022-10-09T08:32:31.168Z,101489.81
2022-10-09T08:36:32.969Z,101503.66
2022-10-09T08:40:53.839Z,101501.16
2022-10-09T08:44:59.260Z,101489.75
2022-10-09T08:49:04.627Z,101500.75
2022-10-09T08:53:36.888Z,101496.38
2022-10-09T08:57:39.190Z,101516.44
2022-10-09T09:02:02.555Z,101517.38
2022-10-09T09:06:16.192Z,101532.44
2022-10-09T09:10:46.087Z,101544.50
2022-10-09T09:15:07.069Z,101538.34
2022-10-09T09:19:46.318Z,101531.47
2022-10-09T09:23:48.901Z,101544.63
2022-10-09T09:27:53.976Z,101565.41
2022-10-09T09:31:59.856Z,101578.59
2022-10-09T09:36:10.839Z,101572.72
2022-10-09T09:40:36.195Z,101576.84
2022-10-09T09:44:44.958Z,101556.91
2022-10-09T09:48:48.904Z,101557.22
2022-10-09T09:52:50.914Z,101571.66
2022-10-09T09:57:15.901Z,101580.41
2022-10-09T10:01:27.304Z,101585.75
2022-10-09T10:05:36.526Z,101580.13
2022-10-09T10:09:38.169Z,101597.41
2022-10-09T10:13:49.212Z,101588.94
2022-10-09T10:17:58.302Z,101581.63
2022-10-09T10:22:06.552Z,101615.81
2022-10-09T10:26:36.656Z,101621.78
2022-10-09T10:30:39.313Z,101617.13
2022-10-09T10:35:04.818Z,101612.28
2022-10-09T10:39:13.003Z,101621.38
2022-10-09T10:43:22.473Z,101601.97
2022-10-09T10:47:28.282Z,101610.34
2022-10-09T10:51:38.958Z,101605.88
2022-10-09T10:56:04.135Z,101615.97
2022-10-09T11:00:10.966Z,101616.84
2022-10-09T11:04:24.697Z,101612.06
2022-10-09T11:08:37.127Z,101595.63
2022-10-09T11:12:56.237Z,101581.19
2022-10-09T11:17:06.728Z,101578.69
2022-10-09T11:21:12.948Z,101609.66
2022-10-09T11:25:34.068Z,101603.88
2022-10-09T11:29:47.255Z,101637.31
2022-10-09T11:33:52.282Z,101644.91
2022-10-09T11:38:01.225Z,101647.69
2022-10-09T11:42:03.424Z,101652.84
2022-10-09T11:46:18.670Z,101659.38
2022-10-09T11:50:39.765Z,101655.97
2022-10-09T11:54:41.971Z,101657.69
2022-10-09T11:58:43.634Z,101661.31
2022-10-09T12:02:58.857Z,101663.16
2022-10-09T12:07:03.822Z,101653.34
2022-10-09T12:11:16.620Z,101650.78
2022-10-09T12:15:37.980Z,101647.47
2022-10-09T12:19:41.022Z,101661.63
2022-10-09T12:23:42.839Z,101653.28
2022-10-09T12:27:45.339Z,101654.00
2022-10-09T12:31:51.430Z,101653.84
2022-10-09T12:36:05.276Z,101644.81
2022-10-09T12:40:20.948Z,101647.28
2022-10-09T12:44:35.766Z,101647.22
2022-10-09T12:48:41.210Z,101640.94
2022-10-09T12:52:55.148Z,101651.28
2022-10-09T12:56:59.247Z,101670.66
2022-10-09T13:01:04.880Z,101665.75
2022-10-09T13:05:07.036Z,101660.25
2022-10-09T13:09:19.995Z,101671.03
2022-10-09T13:13:26.577Z,101670.78
2022-10-09T13:17:38.603Z,101680.06
2022-10-09T13:21:40.433Z,101672.47
2022-10-09T13:25:44.182Z,101679.03
2022-10-09T13:29:47.654Z,101673.88
2022-10-09T13:33:49.934Z,101677.59
2022-10-09T13:37:52.203Z,101678.97
2022-10-09T13:41:55.903Z,101673.94
2022-10-09T13:45:58.146Z,101663.38
2022-10-09T13:50:00.043Z,101668.97
2022-10-09T13:54:01.895Z,101671.19
2022-10-09T13:58:04.500Z,101671.06
2022-10-09T14:02:06.639Z,101672.66
2022-10-09T14:06:08.742Z,101661.50
2022-10-09T14:10:10.728Z,101668.09
2022-10-09T14:14:12.907Z,101672.44
2022-10-09T14:18:14.825Z,101662.19
2022-10-09T14:22:16.953Z,101672.84
2022-10-09T14:26:18.707Z,101677.06
2022-10-09T14:30:20.579Z,101668.50
2022-10-09T14:34:22.435Z,101670.69
2022-10-09T14:38:24.236Z,101665.72
2022-10-09T14:42:25.935Z,101661.59
2022-10-09T14:46:29.488Z,101660.00
2022-10-09T14:50:31.228Z,101665.25
2022-10-09T14:54:33.076Z,101662.75
2022-10-09T14:58:36.430Z,101662.78
2022-10-09T15:02:38.692Z,101651.81
2022-10-09T15:06:40.521Z,101659.31
2022-10-09T15:10:43.489Z,101664.88
2022-10-09T15:14:45.113Z,101646.56
2022-10-09T15:18:50.084Z,101644.66
2022-10-09T15:22:51.893Z,101635.41
2022-10-09T15:26:53.686Z,101638.94
2022-10-09T15:31:00.053Z,101621.72
2022-10-09T15:35:02.004Z,101613.00
2022-10-09T15:39:07.243Z,101618.19
2022-10-09T15:43:09.151Z,101608.66
2022-10-09T15:47:16.401Z,101596.19
2022-10-09T15:51:19.661Z,101593.13
2022-10-09T15:55:21.362Z,101597.28
2022-10-09T15:59:23.312Z,101599.09
2022-10-09T16:03:24.899Z,101585.41
2022-10-09T16:07:26.809Z,101572.44
2022-10-09T16:11:28.582Z,101576.88
2022-10-09T16:15:30.689Z,101576.66
2022-10-09T16:19:32.339Z,101580.75
2022-10-09T16:23:35.031Z,101582.16
2022-10-09T16:27:36.799Z,101582.19
2022-10-09T16:31:38.888Z,101593.78
2022-10-09T16:35:40.766Z,101594.19
2022-10-09T16:39:42.627Z,101593.06
2022-10-09T16:43:46.417Z,101595.56
2022-10-09T16:47:48.742Z,101601.56
2022-10-09T16:51:50.816Z,101606.28
2022-10-09T16:55:52.674Z,101610.13
2022-10-09T16:59:54.378Z,101616.34
2022-10-09T17:03:58.126Z,101620.34
2022-10-09T17:08:00.134Z,101621.22
2022-10-09T17:12:02.182Z,101630.22
2022-10-09T17:16:08.956Z,101631.34
2022-10-09T17:20:10.964Z,101635.84
2022-10-09T17:24:15.991Z,101643.25
2022-10-09T17:28:17.922Z,101643.59
2022-10-09T17:32:19.647Z,101638.44
2022-10-09T17:36:23.782Z,101650.03
2022-10-09T17:40:25.570Z,101652.03
2022-10-09T17:44:30.130Z,101653.94
2022-10-09T17:48:35.761Z,101660.34
2022-10-09T17:52:37.730Z,101667.59
2022-10-09T17:56:40.221Z,101667.16
2022-10-09T18:00:42.617Z,101668.72
2022-10-09T18:04:44.348Z,101668.94
2022-10-09T18:08:46.498Z,101670.09
2022-10-09T18:12:48.390Z,101663.22
2022-10-09T18:16:50.429Z,101668.72
2022-10-09T18:20:52.065Z,101672.44
2022-10-09T18:24:54.166Z,101668.28
2022-10-09T18:28:55.869Z,101682.38
2022-10-09T18:32:57.787Z,101686.88
2022-10-09T18:36:59.709Z,101686.81
2022-10-09T18:41:02.376Z,101680.84
2022-10-09T18:45:04.516Z,101683.66
2022-10-09T18:49:09.909Z,101682.91
2022-10-09T18:53:12.086Z,101685.66
2022-10-09T18:57:14.071Z,101704.81
2022-10-09T19:01:16.136Z,101708.47
2022-10-09T19:05:18.346Z,101711.06
2022-10-09T19:09:20.741Z,101715.75
2022-10-09T19:13:22.902Z,101719.31
2022-10-09T19:17:24.663Z,101725.50
2022-10-09T19:21:26.551Z,101723.66
2022-10-09T19:25:28.381Z,101724.88
2022-10-09T19:29:30.603Z,101721.38
2022-10-09T19:33:32.652Z,101724.75
2022-10-09T19:37:34.694Z,101718.88
2022-10-09T19:41:36.521Z,101721.47
2022-10-09T19:45:38.750Z,101725.25
2022-10-09T19:49:41.218Z,101727.03
2022-10-09T19:53:43.692Z,101729.69
2022-10-09T19:57:45.400Z,101732.38
2022-10-09T20:01:47.492Z,101729.66
2022-10-09T20:05:49.129Z,101726.34
2022-10-09T20:09:51.000Z,101726.44
2022-10-09T20:13:56.006Z,101728.31
2022-10-09T20:17:58.379Z,101731.94
2022-10-09T20:22:00.015Z,101731.13
2022-10-09T20:26:09.578Z,101736.28
2022-10-09T20:30:12.105Z,101739.97
2022-10-09T20:34:13.979Z,101735.75
2022-10-09T20:38:15.974Z,101747.78
2022-10-09T20:42:17.815Z,101746.97
2022-10-09T20:46:21.347Z,101750.50
2022-10-09T20:50:23.372Z,101744.44
2022-10-09T20:54:25.270Z,101755.75
2022-10-09T20:58:27.432Z,101758.31
2022-10-09T21:02:29.269Z,101753.94
2022-10-09T21:06:31.232Z,101747.06
2022-10-09T21:10:32.912Z,101750.72
2022-10-09T21:14:36.112Z,101765.44
2022-10-09T21:18:38.959Z,101758.56
2022-10-09T21:22:42.031Z,101758.63
2022-10-09T21:26:47.423Z,101759.50
2022-10-09T21:30:50.048Z,101755.22
2022-10-09T21:34:51.761Z,101758.66
2022-10-09T21:38:53.672Z,101756.84
2022-10-09T21:42:55.253Z,101758.72
2022-10-09T21:46:57.297Z,101748.34
2022-10-09T21:50:59.015Z,101750.16
2022-10-09T21:55:00.880Z,101743.25
2022-10-09T21:59:02.597Z,101742.38
2022-10-09T22:03:04.679Z,101747.59
2022-10-09T22:07:06.349Z,101752.84
2022-10-09T22:11:10.005Z,101745.88
2022-10-09T22:15:11.806Z,101747.69
2022-10-09T22:19:14.284Z,101753.78
2022-10-09T22:23:18.235Z,101763.28
2022-10-09T22:27:20.178Z,101745.97
2022-10-09T22:31:24.279Z,101759.75
2022-10-09T22:35:26.934Z,101777.03
2022-10-09T22:39:29.343Z,101773.69
2022-10-09T22:43:31.626Z,101780.63
2022-10-09T22:47:33.451Z,101779.75
2022-10-09T22:51:35.513Z,101778.13
2022-10-09T22:55:41.220Z,101787.66
2022-10-09T22:59:43.130Z,101784.94
2022-10-09T23:03:45.333Z,101802.19
2022-10-09T23:07:47.223Z,101796.13
2022-10-09T23:11:48.914Z,101798.69
2022-10-09T23:15:51.202Z,101797.81
2022-10-09T23:19:52.848Z,101803.91
2022-10-09T23:23:55.580Z,101804.78
2022-10-09T23:27:57.261Z,101803.84
2022-10-09T23:31:59.121Z,101793.44
2022-10-09T23:36:04.556Z,101794.31
2022-10-09T23:40:07.011Z,101790.06
2022-10-09T23:44:08.745Z,101784.06
2022-10-09T23:48:10.649Z,101791.00
2022-10-09T23:52:12.530Z,101784.13
2022-10-09T23:56:22.143Z,101783.34
